sensor_id;sensor_type;location;lat;lon;timestamp;P1;durP1;ratioP1;P2;durP2;ratioP2
15608;SDS011;64278;45.642;13.756;2023-03-21T00:01:04;5.10;;;4.70;;
15608;SDS011;64278;45.642;13.756;2023-03-21T00:03:31;5.03;;;4.63;;
15608;SDS011;64278;45.642;13.756;2023-03-21T00:05:58;6.10;;;5.60;;
15608;SDS011;64278;45.642;13.756;2023-03-21T00:08:29;5.00;;;4.70;;
15608;SDS011;64278;45.642;13.756;2023-03-21T00:10:59;5.43;;;5.03;;
15608;SDS011;64278;45.642;13.756;2023-03-21T00:13:26;5.80;;;5.40;;
15608;SDS011;64278;45.642;13.756;2023-03-21T00:15:56;5.25;;;4.85;;
15608;SDS011;64278;45.642;13.756;2023-03-21T00:18:27;5.70;;;5.20;;
15608;SDS011;64278;45.642;13.756;2023-03-21T00:20:56;5.45;;;4.97;;
15608;SDS011;64278;45.642;13.756;2023-03-21T00:23:27;5.70;;;5.30;;
15608;SDS011;64278;45.642;13.756;2023-03-21T00:25:54;5.35;;;4.95;;
15608;SDS011;64278;45.642;13.756;2023-03-21T00:28:20;5.47;;;5.07;;
15608;SDS011;64278;45.642;13.756;2023-03-21T00:30:45;5.32;;;4.93;;
15608;SDS011;64278;45.642;13.756;2023-03-21T00:33:11;5.43;;;5.00;;
15608;SDS011;64278;45.642;13.756;2023-03-21T00:35:38;5.47;;;5.07;;
15608;SDS011;64278;45.642;13.756;2023-03-21T00:38:06;5.75;;;5.25;;
15608;SDS011;64278;45.642;13.756;2023-03-21T00:40:32;4.88;;;4.47;;
15608;SDS011;64278;45.642;13.756;2023-03-21T00:42:58;5.43;;;5.03;;
15608;SDS011;64278;45.642;13.756;2023-03-21T00:45:23;6.28;;;5.78;;
15608;SDS011;64278;45.642;13.756;2023-03-21T00:47:49;5.97;;;5.43;;
15608;SDS011;64278;45.642;13.756;2023-03-21T00:50:15;5.93;;;5.53;;
15608;SDS011;64278;45.642;13.756;2023-03-21T00:52:40;5.63;;;5.22;;
15608;SDS011;64278;45.642;13.756;2023-03-21T00:55:06;5.28;;;4.88;;
15608;SDS011;64278;45.642;13.756;2023-03-21T00:57:43;5.57;;;5.00;;
15608;SDS011;64278;45.642;13.756;2023-03-21T01:00:11;5.65;;;5.15;;
15608;SDS011;64278;45.642;13.756;2023-03-21T01:02:39;6.35;;;5.85;;
15608;SDS011;64278;45.642;13.756;2023-03-21T01:05:27;5.80;;;5.30;;
15608;SDS011;64278;45.642;13.756;2023-03-21T01:08:14;5.80;;;5.30;;
15608;SDS011;64278;45.642;13.756;2023-03-21T01:10:42;5.75;;;5.35;;
15608;SDS011;64278;45.642;13.756;2023-03-21T01:13:10;5.65;;;5.25;;
15608;SDS011;64278;45.642;13.756;2023-03-21T01:15:41;5.50;;;5.05;;
15608;SDS011;64278;45.642;13.756;2023-03-21T01:18:08;6.07;;;5.65;;
15608;SDS011;64278;45.642;13.756;2023-03-21T01:20:34;5.55;;;5.15;;
15608;SDS011;64278;45.642;13.756;2023-03-21T01:23:00;5.82;;;5.43;;
15608;SDS011;64278;45.642;13.756;2023-03-21T01:25:26;5.80;;;5.28;;
15608;SDS011;64278;45.642;13.756;2023-03-21T01:27:51;5.78;;;5.28;;
15608;SDS011;64278;45.642;13.756;2023-03-21T01:30:18;5.80;;;5.40;;
15608;SDS011;64278;45.642;13.756;2023-03-21T01:32:45;6.07;;;5.57;;
15608;SDS011;64278;45.642;13.756;2023-03-21T01:35:11;5.55;;;5.15;;
15608;SDS011;64278;45.642;13.756;2023-03-21T01:37:36;6.00;;;5.50;;
15608;SDS011;64278;45.642;13.756;2023-03-21T01:40:02;5.40;;;5.00;;
15608;SDS011;64278;45.642;13.756;2023-03-21T01:42:29;6.05;;;5.50;;
15608;SDS011;64278;45.642;13.756;2023-03-21T01:44:56;5.32;;;4.93;;
15608;SDS011;64278;45.642;13.756;2023-03-21T01:47:22;5.78;;;5.28;;
15608;SDS011;64278;45.642;13.756;2023-03-21T01:49:50;5.43;;;5.03;;
15608;SDS011;64278;45.642;13.756;2023-03-21T01:52:20;5.53;;;5.13;;
15608;SDS011;64278;45.642;13.756;2023-03-21T01:54:57;5.15;;;4.75;;
15608;SDS011;64278;45.642;13.756;2023-03-21T01:57:28;5.65;;;5.18;;
15608;SDS011;64278;45.642;13.756;2023-03-21T01:59:58;5.30;;;4.90;;
15608;SDS011;64278;45.642;13.756;2023-03-21T02:02:34;5.22;;;4.82;;
15608;SDS011;64278;45.642;13.756;2023-03-21T02:05:01;5.40;;;4.97;;
15608;SDS011;64278;45.642;13.756;2023-03-21T02:07:29;5.00;;;4.60;;
15608;SDS011;64278;45.642;13.756;2023-03-21T02:09:59;5.50;;;5.10;;
15608;SDS011;64278;45.642;13.756;2023-03-21T02:12:32;5.30;;;4.88;;
15608;SDS011;64278;45.642;13.756;2023-03-21T02:14:58;5.40;;;4.90;;
15608;SDS011;64278;45.642;13.756;2023-03-21T02:23:58;5.40;;;4.90;;
15608;SDS011;64278;45.642;13.756;2023-03-21T02:31:48;5.60;;;5.20;;
15608;SDS011;64278;45.642;13.756;2023-03-21T02:42:16;5.78;;;5.15;;
15608;SDS011;64278;45.642;13.756;2023-03-21T02:45:00;5.22;;;4.88;;
15608;SDS011;64278;45.642;13.756;2023-03-21T02:50:10;4.90;;;4.60;;
15608;SDS011;64278;45.642;13.756;2023-03-21T02:52:37;5.60;;;5.20;;
15608;SDS011;64278;45.642;13.756;2023-03-21T02:55:10;5.43;;;5.03;;
15608;SDS011;64278;45.642;13.756;2023-03-21T02:57:42;5.20;;;4.80;;
15608;SDS011;64278;45.642;13.756;2023-03-21T03:00:09;5.00;;;4.60;;
15608;SDS011;64278;45.642;13.756;2023-03-21T03:02:41;4.72;;;4.35;;
15608;SDS011;64278;45.642;13.756;2023-03-21T03:05:14;5.28;;;4.88;;
15608;SDS011;64278;45.642;13.756;2023-03-21T03:07:55;5.03;;;4.72;;
15608;SDS011;64278;45.642;13.756;2023-03-21T03:10:34;4.35;;;4.05;;
15608;SDS011;64278;45.642;13.756;2023-03-21T03:13:23;4.82;;;4.40;;
15608;SDS011;64278;45.642;13.756;2023-03-21T03:23:47;5.03;;;4.53;;
15608;SDS011;64278;45.642;13.756;2023-03-21T03:26:30;5.13;;;4.78;;
15608;SDS011;64278;45.642;13.756;2023-03-21T03:29:00;4.65;;;4.35;;
15608;SDS011;64278;45.642;13.756;2023-03-21T03:31:33;4.85;;;4.45;;
15608;SDS011;64278;45.642;13.756;2023-03-21T03:34:05;4.70;;;4.38;;
15608;SDS011;64278;45.642;13.756;2023-03-21T03:36:36;4.07;;;3.83;;
15608;SDS011;64278;45.642;13.756;2023-03-21T03:39:06;4.50;;;4.20;;
15608;SDS011;64278;45.642;13.756;2023-03-21T03:41:37;5.10;;;4.70;;
15608;SDS011;64278;45.642;13.756;2023-03-21T03:44:07;4.38;;;4.07;;
15608;SDS011;64278;45.642;13.756;2023-03-21T03:49:34;4.25;;;3.95;;
15608;SDS011;64278;45.642;13.756;2023-03-21T03:52:16;5.32;;;4.90;;
15608;SDS011;64278;45.642;13.756;2023-03-21T03:54:50;4.55;;;4.15;;
15608;SDS011;64278;45.642;13.756;2023-03-21T03:57:16;4.03;;;3.72;;
15608;SDS011;64278;45.642;13.756;2023-03-21T03:59:43;5.03;;;4.63;;
15608;SDS011;64278;45.642;13.756;2023-03-21T04:02:10;4.88;;;4.47;;
15608;SDS011;64278;45.642;13.756;2023-03-21T04:04:37;4.45;;;4.15;;
15608;SDS011;64278;45.642;13.756;2023-03-21T04:07:03;4.57;;;4.28;;
15608;SDS011;64278;45.642;13.756;2023-03-21T04:09:30;4.80;;;4.40;;
15608;SDS011;64278;45.642;13.756;2023-03-21T04:11:56;4.80;;;4.47;;
15608;SDS011;64278;45.642;13.756;2023-03-21T04:14:23;4.63;;;4.32;;
15608;SDS011;64278;45.642;13.756;2023-03-21T04:16:49;4.40;;;4.10;;
15608;SDS011;64278;45.642;13.756;2023-03-21T04:19:16;4.50;;;4.18;;
15608;SDS011;64278;45.642;13.756;2023-03-21T04:21:43;4.45;;;4.15;;
15608;SDS011;64278;45.642;13.756;2023-03-21T04:24:09;4.50;;;4.10;;
15608;SDS011;64278;45.642;13.756;2023-03-21T04:26:36;4.68;;;4.28;;
15608;SDS011;64278;45.642;13.756;2023-03-21T04:29:02;4.10;;;3.80;;
15608;SDS011;64278;45.642;13.756;2023-03-21T04:31:28;4.70;;;4.40;;
15608;SDS011;64278;45.642;13.756;2023-03-21T04:34:01;3.70;;;3.50;;
15608;SDS011;64278;45.642;13.756;2023-03-21T04:36:30;4.50;;;4.20;;
15608;SDS011;64278;45.642;13.756;2023-03-21T04:39:02;4.63;;;4.32;;
15608;SDS011;64278;45.642;13.756;2023-03-21T04:41:30;4.15;;;3.85;;
15608;SDS011;64278;45.642;13.756;2023-03-21T04:43:56;4.47;;;4.07;;
15608;SDS011;64278;45.642;13.756;2023-03-21T04:46:22;3.55;;;3.35;;
15608;SDS011;64278;45.642;13.756;2023-03-21T04:48:48;4.68;;;4.38;;
15608;SDS011;64278;45.642;13.756;2023-03-21T04:51:14;4.65;;;4.32;;
15608;SDS011;64278;45.642;13.756;2023-03-21T04:53:40;5.35;;;4.85;;
15608;SDS011;64278;45.642;13.756;2023-03-21T04:56:09;5.03;;;4.63;;
15608;SDS011;64278;45.642;13.756;2023-03-21T04:58:35;4.68;;;4.30;;
15608;SDS011;64278;45.642;13.756;2023-03-21T05:01:01;5.22;;;4.82;;
15608;SDS011;64278;45.642;13.756;2023-03-21T05:03:29;4.95;;;4.65;;
15608;SDS011;64278;45.642;13.756;2023-03-21T05:05:58;4.80;;;4.40;;
15608;SDS011;64278;45.642;13.756;2023-03-21T05:08:25;5.32;;;5.00;;
15608;SDS011;64278;45.642;13.756;2023-03-21T05:10:51;5.22;;;4.82;;
15608;SDS011;64278;45.642;13.756;2023-03-21T05:13:16;4.70;;;4.30;;
15608;SDS011;64278;45.642;13.756;2023-03-21T05:15:42;4.47;;;4.18;;
15608;SDS011;64278;45.642;13.756;2023-03-21T05:18:08;4.63;;;4.25;;
15608;SDS011;64278;45.642;13.756;2023-03-21T05:20:37;4.43;;;4.13;;
15608;SDS011;64278;45.642;13.756;2023-03-21T05:23:08;4.80;;;4.40;;
15608;SDS011;64278;45.642;13.756;2023-03-21T05:25:35;4.78;;;4.38;;
15608;SDS011;64278;45.642;13.756;2023-03-21T05:28:04;4.90;;;4.50;;
15608;SDS011;64278;45.642;13.756;2023-03-21T05:30:32;4.25;;;3.95;;
15608;SDS011;64278;45.642;13.756;2023-03-21T05:32:58;4.30;;;3.90;;
15608;SDS011;64278;45.642;13.756;2023-03-21T05:35:24;4.32;;;4.03;;
15608;SDS011;64278;45.642;13.756;2023-03-21T05:37:50;5.20;;;4.80;;
15608;SDS011;64278;45.642;13.756;2023-03-21T05:40:17;4.80;;;4.50;;
15608;SDS011;64278;45.642;13.756;2023-03-21T05:42:43;5.40;;;5.00;;
15608;SDS011;64278;45.642;13.756;2023-03-21T05:45:11;5.00;;;4.60;;
15608;SDS011;64278;45.642;13.756;2023-03-21T05:47:37;5.00;;;4.68;;
15608;SDS011;64278;45.642;13.756;2023-03-21T05:50:03;4.93;;;4.63;;
15608;SDS011;64278;45.642;13.756;2023-03-21T05:52:30;5.80;;;5.40;;
15608;SDS011;64278;45.642;13.756;2023-03-21T05:54:56;5.75;;;5.35;;
15608;SDS011;64278;45.642;13.756;2023-03-21T05:57:22;5.22;;;4.82;;
15608;SDS011;64278;45.642;13.756;2023-03-21T05:59:48;5.47;;;5.07;;
15608;SDS011;64278;45.642;13.756;2023-03-21T06:02:14;5.60;;;5.20;;
15608;SDS011;64278;45.642;13.756;2023-03-21T06:04:40;5.22;;;4.82;;
15608;SDS011;64278;45.642;13.756;2023-03-21T06:07:05;5.00;;;4.68;;
15608;SDS011;64278;45.642;13.756;2023-03-21T06:09:31;4.93;;;4.63;;
15608;SDS011;64278;45.642;13.756;2023-03-21T06:11:58;5.53;;;5.13;;
15608;SDS011;64278;45.642;13.756;2023-03-21T06:14:24;5.47;;;5.07;;
15608;SDS011;64278;45.642;13.756;2023-03-21T06:16:50;5.10;;;4.70;;
15608;SDS011;64278;45.642;13.756;2023-03-21T06:19:18;5.25;;;4.85;;
15608;SDS011;64278;45.642;13.756;2023-03-21T06:21:45;5.15;;;4.75;;
15608;SDS011;64278;45.642;13.756;2023-03-21T06:24:11;5.03;;;4.72;;
15608;SDS011;64278;45.642;13.756;2023-03-21T06:26:37;4.95;;;4.57;;
15608;SDS011;64278;45.642;13.756;2023-03-21T06:29:03;4.45;;;4.15;;
15608;SDS011;64278;45.642;13.756;2023-03-21T06:31:28;5.15;;;4.65;;
15608;SDS011;64278;45.642;13.756;2023-03-21T06:33:54;5.18;;;4.68;;
15608;SDS011;64278;45.642;13.756;2023-03-21T06:36:20;5.22;;;4.82;;
15608;SDS011;64278;45.642;13.756;2023-03-21T06:38:46;4.55;;;4.25;;
15608;SDS011;64278;45.642;13.756;2023-03-21T06:41:12;4.30;;;4.00;;
15608;SDS011;64278;45.642;13.756;2023-03-21T06:43:38;4.43;;;4.13;;
15608;SDS011;64278;45.642;13.756;2023-03-21T06:46:04;4.10;;;3.80;;
15608;SDS011;64278;45.642;13.756;2023-03-21T06:48:30;4.57;;;4.28;;
15608;SDS011;64278;45.642;13.756;2023-03-21T06:50:56;4.68;;;4.30;;
15608;SDS011;64278;45.642;13.756;2023-03-21T06:53:23;4.50;;;4.20;;
15608;SDS011;64278;45.642;13.756;2023-03-21T06:55:54;4.10;;;3.80;;
15608;SDS011;64278;45.642;13.756;2023-03-21T06:58:20;4.57;;;4.28;;
15608;SDS011;64278;45.642;13.756;2023-03-21T07:00:46;4.43;;;4.13;;
15608;SDS011;64278;45.642;13.756;2023-03-21T07:03:12;4.47;;;4.15;;
15608;SDS011;64278;45.642;13.756;2023-03-21T07:05:39;4.55;;;4.22;;
15608;SDS011;64278;45.642;13.756;2023-03-21T07:08:05;4.25;;;3.95;;
15608;SDS011;64278;45.642;13.756;2023-03-21T07:10:37;4.03;;;3.70;;
15608;SDS011;64278;45.642;13.756;2023-03-21T07:13:04;4.25;;;3.95;;
15608;SDS011;64278;45.642;13.756;2023-03-21T07:15:31;4.57;;;4.28;;
15608;SDS011;64278;45.642;13.756;2023-03-21T07:17:58;4.65;;;4.30;;
15608;SDS011;64278;45.642;13.756;2023-03-21T07:20:24;4.55;;;4.25;;
15608;SDS011;64278;45.642;13.756;2023-03-21T07:22:51;4.85;;;4.55;;
15608;SDS011;64278;45.642;13.756;2023-03-21T07:25:16;4.30;;;3.90;;
15608;SDS011;64278;45.642;13.756;2023-03-21T07:27:44;4.80;;;4.40;;
15608;SDS011;64278;45.642;13.756;2023-03-21T07:30:11;5.00;;;4.60;;
15608;SDS011;64278;45.642;13.756;2023-03-21T07:32:37;4.07;;;3.78;;
15608;SDS011;64278;45.642;13.756;2023-03-21T07:35:03;4.43;;;4.03;;
15608;SDS011;64278;45.642;13.756;2023-03-21T07:37:34;4.40;;;4.10;;
15608;SDS011;64278;45.642;13.756;2023-03-21T07:40:00;4.82;;;4.53;;
15608;SDS011;64278;45.642;13.756;2023-03-21T07:42:26;5.00;;;4.60;;
15608;SDS011;64278;45.642;13.756;2023-03-21T07:44:51;4.10;;;3.80;;
15608;SDS011;64278;45.642;13.756;2023-03-21T07:47:19;4.05;;;3.78;;
15608;SDS011;64278;45.642;13.756;2023-03-21T07:49:45;4.40;;;4.10;;
15608;SDS011;64278;45.642;13.756;2023-03-21T07:52:11;4.50;;;4.10;;
15608;SDS011;64278;45.642;13.756;2023-03-21T07:54:37;4.53;;;4.22;;
15608;SDS011;64278;45.642;13.756;2023-03-21T07:57:02;5.22;;;4.82;;
15608;SDS011;64278;45.642;13.756;2023-03-21T07:59:28;4.60;;;4.30;;
15608;SDS011;64278;45.642;13.756;2023-03-21T08:01:54;4.60;;;4.30;;
15608;SDS011;64278;45.642;13.756;2023-03-21T08:04:20;4.75;;;4.35;;
15608;SDS011;64278;45.642;13.756;2023-03-21T08:06:46;5.47;;;5.05;;
15608;SDS011;64278;45.642;13.756;2023-03-21T08:09:12;4.55;;;4.25;;
15608;SDS011;64278;45.642;13.756;2023-03-21T08:11:38;4.43;;;4.05;;
15608;SDS011;64278;45.642;13.756;2023-03-21T08:14:04;4.93;;;4.53;;
15608;SDS011;64278;45.642;13.756;2023-03-21T08:16:30;4.78;;;4.40;;
15608;SDS011;64278;45.642;13.756;2023-03-21T08:18:56;5.78;;;5.35;;
15608;SDS011;64278;45.642;13.756;2023-03-21T08:21:21;5.53;;;5.10;;
15608;SDS011;64278;45.642;13.756;2023-03-21T08:23:47;5.30;;;4.75;;
15608;SDS011;64278;45.642;13.756;2023-03-21T08:26:12;5.18;;;4.78;;
15608;SDS011;64278;45.642;13.756;2023-03-21T08:28:42;5.22;;;4.82;;
15608;SDS011;64278;45.642;13.756;2023-03-21T08:31:08;5.50;;;5.00;;
15608;SDS011;64278;45.642;13.756;2023-03-21T08:33:35;5.40;;;4.90;;
15608;SDS011;64278;45.642;13.756;2023-03-21T08:36:02;7.05;;;5.70;;
15608;SDS011;64278;45.642;13.756;2023-03-21T08:38:28;5.57;;;5.03;;
15608;SDS011;64278;45.642;13.756;2023-03-21T08:40:55;5.72;;;5.13;;
15608;SDS011;64278;45.642;13.756;2023-03-21T08:43:21;6.72;;;5.43;;
15608;SDS011;64278;45.642;13.756;2023-03-21T08:45:47;5.28;;;4.82;;
15608;SDS011;64278;45.642;13.756;2023-03-21T08:48:13;6.50;;;5.47;;
15608;SDS011;64278;45.642;13.756;2023-03-21T08:50:39;6.13;;;5.50;;
15608;SDS011;64278;45.642;13.756;2023-03-21T08:53:05;5.68;;;5.13;;
15608;SDS011;64278;45.642;13.756;2023-03-21T08:55:31;6.07;;;5.47;;
15608;SDS011;64278;45.642;13.756;2023-03-21T08:57:57;6.32;;;5.72;;
15608;SDS011;64278;45.642;13.756;2023-03-21T09:00:23;7.28;;;6.65;;
15608;SDS011;64278;45.642;13.756;2023-03-21T09:02:49;6.80;;;6.30;;
15608;SDS011;64278;45.642;13.756;2023-03-21T09:05:16;7.28;;;6.57;;
15608;SDS011;64278;45.642;13.756;2023-03-21T09:07:43;8.10;;;7.30;;
15608;SDS011;64278;45.642;13.756;2023-03-21T09:10:11;8.57;;;7.78;;
15608;SDS011;64278;45.642;13.756;2023-03-21T09:12:40;7.82;;;7.22;;
15608;SDS011;64278;45.642;13.756;2023-03-21T09:15:07;8.13;;;7.53;;
15608;SDS011;64278;45.642;13.756;2023-03-21T09:17:34;8.50;;;7.78;;
15608;SDS011;64278;45.642;13.756;2023-03-21T09:20:00;8.73;;;7.90;;
15608;SDS011;64278;45.642;13.756;2023-03-21T09:22:32;7.47;;;6.78;;
15608;SDS011;64278;45.642;13.756;2023-03-21T09:24:58;7.50;;;6.55;;
15608;SDS011;64278;45.642;13.756;2023-03-21T09:27:26;7.53;;;6.82;;
15608;SDS011;64278;45.642;13.756;2023-03-21T09:29:52;6.18;;;5.68;;
15608;SDS011;64278;45.642;13.756;2023-03-21T09:32:18;7.68;;;6.90;;
15608;SDS011;64278;45.642;13.756;2023-03-21T09:34:44;7.28;;;6.68;;
15608;SDS011;64278;45.642;13.756;2023-03-21T09:37:10;6.47;;;5.85;;
15608;SDS011;64278;45.642;13.756;2023-03-21T09:39:41;8.50;;;6.38;;
15608;SDS011;64278;45.642;13.756;2023-03-21T09:47:29;7.03;;;6.22;;
15608;SDS011;64278;45.642;13.756;2023-03-21T09:50:18;6.25;;;5.75;;
15608;SDS011;64278;45.642;13.756;2023-03-21T09:52:53;6.53;;;5.35;;
15608;SDS011;64278;45.642;13.756;2023-03-21T09:55:39;5.53;;;5.13;;
15608;SDS011;64278;45.642;13.756;2023-03-21T10:00:38;5.82;;;5.43;;
15608;SDS011;64278;45.642;13.756;2023-03-21T10:03:19;6.20;;;5.70;;
15608;SDS011;64278;45.642;13.756;2023-03-21T10:05:52;6.07;;;5.47;;
15608;SDS011;64278;45.642;13.756;2023-03-21T10:13:52;5.50;;;5.00;;
15608;SDS011;64278;45.642;13.756;2023-03-21T10:18:54;5.30;;;4.80;;
15608;SDS011;64278;45.642;13.756;2023-03-21T10:21:25;5.07;;;4.68;;
15608;SDS011;64278;45.642;13.756;2023-03-21T10:23:52;5.30;;;4.90;;
15608;SDS011;64278;45.642;13.756;2023-03-21T10:26:20;5.63;;;4.90;;
15608;SDS011;64278;45.642;13.756;2023-03-21T10:28:48;5.45;;;4.95;;
15608;SDS011;64278;45.642;13.756;2023-03-21T10:31:16;4.72;;;4.40;;
15608;SDS011;64278;45.642;13.756;2023-03-21T10:33:45;5.35;;;4.80;;
15608;SDS011;64278;45.642;13.756;2023-03-21T10:36:22;4.90;;;4.60;;
15608;SDS011;64278;45.642;13.756;2023-03-21T10:38:55;5.22;;;4.72;;
15608;SDS011;64278;45.642;13.756;2023-03-21T10:41:35;5.65;;;5.15;;
15608;SDS011;64278;45.642;13.756;2023-03-21T10:44:03;5.28;;;4.85;;
15608;SDS011;64278;45.642;13.756;2023-03-21T10:46:31;5.18;;;4.78;;
15608;SDS011;64278;45.642;13.756;2023-03-21T10:48:57;5.45;;;4.70;;
15608;SDS011;64278;45.642;13.756;2023-03-21T10:51:27;5.20;;;4.68;;
15608;SDS011;64278;45.642;13.756;2023-03-21T10:54:00;5.20;;;4.80;;
15608;SDS011;64278;45.642;13.756;2023-03-21T10:56:34;4.85;;;4.45;;
15608;SDS011;64278;45.642;13.756;2023-03-21T10:59:03;4.43;;;4.03;;
15608;SDS011;64278;45.642;13.756;2023-03-21T11:01:38;4.70;;;4.30;;
15608;SDS011;64278;45.642;13.756;2023-03-21T11:04:08;5.72;;;5.13;;
15608;SDS011;64278;45.642;13.756;2023-03-21T11:06:42;7.72;;;5.20;;
15608;SDS011;64278;45.642;13.756;2023-03-21T11:09:15;5.50;;;5.00;;
15608;SDS011;64278;45.642;13.756;2023-03-21T11:14:26;7.03;;;5.80;;
15608;SDS011;64278;45.642;13.756;2023-03-21T11:16:58;6.82;;;6.10;;
15608;SDS011;64278;45.642;13.756;2023-03-21T11:19:31;6.70;;;5.70;;
15608;SDS011;64278;45.642;13.756;2023-03-21T11:21:58;5.82;;;5.32;;
15608;SDS011;64278;45.642;13.756;2023-03-21T11:24:29;6.53;;;5.93;;
15608;SDS011;64278;45.642;13.756;2023-03-21T11:26:56;6.65;;;5.45;;
15608;SDS011;64278;45.642;13.756;2023-03-21T11:29:25;7.22;;;6.10;;
15608;SDS011;64278;45.642;13.756;2023-03-21T11:32:00;7.43;;;5.68;;
15608;SDS011;64278;45.642;13.756;2023-03-21T11:34:49;7.60;;;5.75;;
15608;SDS011;64278;45.642;13.756;2023-03-21T11:37:40;6.88;;;5.90;;
15608;SDS011;64278;45.642;13.756;2023-03-21T11:42:43;6.93;;;5.70;;
15608;SDS011;64278;45.642;13.756;2023-03-21T11:45:19;6.47;;;5.85;;
15608;SDS011;64278;45.642;13.756;2023-03-21T11:47:53;8.80;;;6.07;;
15608;SDS011;64278;45.642;13.756;2023-03-21T11:50:28;6.63;;;5.50;;
15608;SDS011;64278;45.642;13.756;2023-03-21T11:56:05;7.82;;;5.22;;
15608;SDS011;64278;45.642;13.756;2023-03-21T11:58:38;9.05;;;5.82;;
15608;SDS011;64278;45.642;13.756;2023-03-21T12:01:29;5.65;;;5.15;;
15608;SDS011;64278;45.642;13.756;2023-03-21T12:06:50;5.22;;;4.82;;
15608;SDS011;64278;45.642;13.756;2023-03-21T12:09:23;5.68;;;5.25;;
15608;SDS011;64278;45.642;13.756;2023-03-21T12:25:53;6.13;;;5.35;;
15608;SDS011;64278;45.642;13.756;2023-03-21T12:31:30;5.68;;;5.18;;
15608;SDS011;64278;45.642;13.756;2023-03-21T12:39:30;6.00;;;5.13;;
15608;SDS011;64278;45.642;13.756;2023-03-21T12:45:01;5.57;;;5.03;;
15608;SDS011;64278;45.642;13.756;2023-03-21T12:47:33;5.10;;;4.75;;
15608;SDS011;64278;45.642;13.756;2023-03-21T12:50:04;5.10;;;4.80;;
15608;SDS011;64278;45.642;13.756;2023-03-21T12:52:46;4.55;;;4.15;;
15608;SDS011;64278;45.642;13.756;2023-03-21T12:55:49;4.95;;;4.45;;
15608;SDS011;64278;45.642;13.756;2023-03-21T12:58:10;5.75;;;5.18;;
15608;SDS011;64278;45.642;13.756;2023-03-21T13:00:47;5.13;;;4.72;;
15608;SDS011;64278;45.642;13.756;2023-03-21T13:03:21;6.05;;;5.45;;
15608;SDS011;64278;45.642;13.756;2023-03-21T13:06:26;6.13;;;5.63;;
15608;SDS011;64278;45.642;13.756;2023-03-21T13:08:58;6.25;;;5.65;;
15608;SDS011;64278;45.642;13.756;2023-03-21T13:11:30;5.60;;;5.10;;
15608;SDS011;64278;45.642;13.756;2023-03-21T13:14:05;6.93;;;5.32;;
15608;SDS011;64278;45.642;13.756;2023-03-21T13:16:36;6.28;;;5.78;;
15608;SDS011;64278;45.642;13.756;2023-03-21T13:22:28;6.30;;;5.70;;
15608;SDS011;64278;45.642;13.756;2023-03-21T13:25:02;5.63;;;5.22;;
15608;SDS011;64278;45.642;13.756;2023-03-21T13:27:35;5.38;;;4.95;;
15608;SDS011;64278;45.642;13.756;2023-03-21T13:34:59;5.45;;;4.90;;
15608;SDS011;64278;45.642;13.756;2023-03-21T13:37:38;5.00;;;4.60;;
15608;SDS011;64278;45.642;13.756;2023-03-21T13:40:06;5.30;;;4.90;;
15608;SDS011;64278;45.642;13.756;2023-03-21T13:42:52;5.35;;;4.95;;
15608;SDS011;64278;45.642;13.756;2023-03-21T13:46:07;5.28;;;4.85;;
15608;SDS011;64278;45.642;13.756;2023-03-21T13:48:39;5.35;;;4.95;;
15608;SDS011;64278;45.642;13.756;2023-03-21T13:51:06;5.20;;;4.80;;
15608;SDS011;64278;45.642;13.756;2023-03-21T13:53:38;5.88;;;5.38;;
15608;SDS011;64278;45.642;13.756;2023-03-21T14:04:05;5.53;;;5.03;;
15608;SDS011;64278;45.642;13.756;2023-03-21T14:09:14;5.95;;;4.63;;
15608;SDS011;64278;45.642;13.756;2023-03-21T14:11:48;5.78;;;5.13;;
15608;SDS011;64278;45.642;13.756;2023-03-21T14:14:16;6.68;;;6.03;;
15608;SDS011;64278;45.642;13.756;2023-03-21T14:16:43;6.13;;;5.22;;
15608;SDS011;64278;45.642;13.756;2023-03-21T14:19:09;6.40;;;5.80;;
15608;SDS011;64278;45.642;13.756;2023-03-21T14:21:36;6.68;;;5.97;;
15608;SDS011;64278;45.642;13.756;2023-03-21T14:24:05;6.55;;;5.53;;
15608;SDS011;64278;45.642;13.756;2023-03-21T14:26:39;6.18;;;5.57;;
15608;SDS011;64278;45.642;13.756;2023-03-21T14:29:12;6.38;;;5.63;;
15608;SDS011;64278;45.642;13.756;2023-03-21T14:31:50;6.05;;;5.45;;
15608;SDS011;64278;45.642;13.756;2023-03-21T14:34:17;6.95;;;5.80;;
15608;SDS011;64278;45.642;13.756;2023-03-21T14:36:44;6.88;;;5.63;;
15608;SDS011;64278;45.642;13.756;2023-03-21T14:39:20;7.10;;;5.70;;
15608;SDS011;64278;45.642;13.756;2023-03-21T14:44:24;7.82;;;6.10;;
15608;SDS011;64278;45.642;13.756;2023-03-21T14:47:06;5.97;;;5.47;;
15608;SDS011;64278;45.642;13.756;2023-03-21T14:49:40;5.80;;;5.20;;
15608;SDS011;64278;45.642;13.756;2023-03-21T14:52:08;6.32;;;5.55;;
15608;SDS011;64278;45.642;13.756;2023-03-21T14:54:38;6.80;;;6.10;;
15608;SDS011;64278;45.642;13.756;2023-03-21T14:57:09;5.85;;;5.35;;
15608;SDS011;64278;45.642;13.756;2023-03-21T14:59:38;5.97;;;5.53;;
15608;SDS011;64278;45.642;13.756;2023-03-21T15:02:16;6.05;;;5.45;;
15608;SDS011;64278;45.642;13.756;2023-03-21T15:04:45;7.78;;;6.38;;
15608;SDS011;64278;45.642;13.756;2023-03-21T15:07:29;7.03;;;6.15;;
15608;SDS011;64278;45.642;13.756;2023-03-21T15:10:01;6.00;;;5.50;;
15608;SDS011;64278;45.642;13.756;2023-03-21T15:12:32;6.63;;;5.93;;
15608;SDS011;64278;45.642;13.756;2023-03-21T15:14:58;6.32;;;5.78;;
15608;SDS011;64278;45.642;13.756;2023-03-21T15:17:25;6.63;;;5.50;;
15608;SDS011;64278;45.642;13.756;2023-03-21T15:19:51;5.45;;;5.00;;
15608;SDS011;64278;45.642;13.756;2023-03-21T15:22:19;5.88;;;5.28;;
15608;SDS011;64278;45.642;13.756;2023-03-21T15:25:00;6.10;;;5.60;;
15608;SDS011;64278;45.642;13.756;2023-03-21T15:27:29;5.72;;;4.95;;
15608;SDS011;64278;45.642;13.756;2023-03-21T15:29:58;6.45;;;5.40;;
15608;SDS011;64278;45.642;13.756;2023-03-21T15:34:53;5.70;;;5.20;;
15608;SDS011;64278;45.642;13.756;2023-03-21T15:37:27;6.82;;;5.90;;
15608;SDS011;64278;45.642;13.756;2023-03-21T15:40:05;5.50;;;5.00;;
15608;SDS011;64278;45.642;13.756;2023-03-21T15:42:42;5.70;;;5.20;;
15608;SDS011;64278;45.642;13.756;2023-03-21T15:52:51;5.05;;;4.55;;
15608;SDS011;64278;45.642;13.756;2023-03-21T15:55:22;5.25;;;4.75;;
15608;SDS011;64278;45.642;13.756;2023-03-21T15:57:58;5.68;;;5.18;;
15608;SDS011;64278;45.642;13.756;2023-03-21T16:02:58;8.40;;;5.50;;
15608;SDS011;64278;45.642;13.756;2023-03-21T16:05:38;5.82;;;5.20;;
15608;SDS011;64278;45.642;13.756;2023-03-21T16:10:41;5.50;;;5.07;;
15608;SDS011;64278;45.642;13.756;2023-03-21T16:13:09;5.60;;;5.10;;
15608;SDS011;64278;45.642;13.756;2023-03-21T16:15:37;5.47;;;4.97;;
15608;SDS011;64278;45.642;13.756;2023-03-21T16:18:04;5.90;;;5.30;;
15608;SDS011;64278;45.642;13.756;2023-03-21T16:20:34;6.25;;;5.05;;
15608;SDS011;64278;45.642;13.756;2023-03-21T16:23:05;6.05;;;5.55;;
15608;SDS011;64278;45.642;13.756;2023-03-21T16:25:31;5.75;;;5.28;;
15608;SDS011;64278;45.642;13.756;2023-03-21T16:27:57;5.57;;;5.18;;
15608;SDS011;64278;45.642;13.756;2023-03-21T16:30:24;5.55;;;5.05;;
15608;SDS011;64278;45.642;13.756;2023-03-21T16:32:50;5.47;;;4.97;;
15608;SDS011;64278;45.642;13.756;2023-03-21T16:35:16;5.88;;;5.38;;
15608;SDS011;64278;45.642;13.756;2023-03-21T16:37:43;5.40;;;4.90;;
15608;SDS011;64278;45.642;13.756;2023-03-21T16:40:19;5.43;;;4.97;;
15608;SDS011;64278;45.642;13.756;2023-03-21T16:42:51;4.93;;;4.53;;
15608;SDS011;64278;45.642;13.756;2023-03-21T16:45:17;5.72;;;5.22;;
15608;SDS011;64278;45.642;13.756;2023-03-21T16:47:42;5.25;;;4.80;;
15608;SDS011;64278;45.642;13.756;2023-03-21T16:52:59;5.28;;;4.78;;